sensor_id;sensor_type;location;lat;lon;timestamp;P1;durP1;ratioP1;P2;durP2;ratioP2
37873;SDS011;23709;48.078;11.684;2024-02-15T00:01:01;4.35;;;2.53;;
37873;SDS011;23709;48.078;11.684;2024-02-15T00:03:35;3.92;;;2.08;;
37873;SDS011;23709;48.078;11.684;2024-02-15T00:06:08;3.88;;;2.08;;
37873;SDS011;23709;48.078;11.684;2024-02-15T00:08:40;3.20;;;1.90;;
37873;SDS011;23709;48.078;11.684;2024-02-15T00:11:13;2.78;;;1.88;;
37873;SDS011;23709;48.078;11.684;2024-02-15T00:13:45;2.58;;;1.67;;
37873;SDS011;23709;48.078;11.684;2024-02-15T00:16:18;2.83;;;1.77;;
37873;SDS011;23709;48.078;11.684;2024-02-15T00:18:51;4.03;;;1.58;;
37873;SDS011;23709;48.078;11.684;2024-02-15T00:21:24;3.80;;;1.45;;
37873;SDS011;23709;48.078;11.684;2024-02-15T00:23:56;2.97;;;1.55;;
37873;SDS011;23709;48.078;11.684;2024-02-15T00:26:31;3.80;;;1.35;;
37873;SDS011;23709;48.078;11.684;2024-02-15T00:29:03;3.60;;;1.77;;
37873;SDS011;23709;48.078;11.684;2024-02-15T00:31:36;2.97;;;1.83;;
37873;SDS011;23709;48.078;11.684;2024-02-15T00:34:10;4.60;;;1.55;;
37873;SDS011;23709;48.078;11.684;2024-02-15T00:36:44;4.03;;;1.80;;
37873;SDS011;23709;48.078;11.684;2024-02-15T00:39:17;1.90;;;1.35;;
37873;SDS011;23709;48.078;11.684;2024-02-15T00:41:53;2.92;;;1.30;;
37873;SDS011;23709;48.078;11.684;2024-02-15T00:44:27;2.65;;;1.42;;
37873;SDS011;23709;48.078;11.684;2024-02-15T00:47:00;2.97;;;1.60;;
37873;SDS011;23709;48.078;11.684;2024-02-15T00:49:32;2.30;;;1.58;;
37873;SDS011;23709;48.078;11.684;2024-02-15T00:52:05;7.95;;;1.70;;
37873;SDS011;23709;48.078;11.684;2024-02-15T00:54:38;1.73;;;1.20;;
37873;SDS011;23709;48.078;11.684;2024-02-15T00:57:10;3.10;;;1.52;;
37873;SDS011;23709;48.078;11.684;2024-02-15T00:59:43;2.38;;;1.58;;
37873;SDS011;23709;48.078;11.684;2024-02-15T01:02:15;3.25;;;1.38;;
37873;SDS011;23709;48.078;11.684;2024-02-15T01:04:50;2.42;;;1.50;;
37873;SDS011;23709;48.078;11.684;2024-02-15T01:07:24;1.73;;;1.27;;
37873;SDS011;23709;48.078;11.684;2024-02-15T01:10:00;2.80;;;1.70;;
37873;SDS011;23709;48.078;11.684;2024-02-15T01:12:32;2.80;;;1.40;;
37873;SDS011;23709;48.078;11.684;2024-02-15T01:15:05;1.85;;;1.35;;
37873;SDS011;23709;48.078;11.684;2024-02-15T01:17:38;2.13;;;1.37;;
37873;SDS011;23709;48.078;11.684;2024-02-15T01:20:11;1.88;;;1.45;;
37873;SDS011;23709;48.078;11.684;2024-02-15T01:22:43;8.10;;;1.75;;
37873;SDS011;23709;48.078;11.684;2024-02-15T01:25:16;2.45;;;1.45;;
37873;SDS011;23709;48.078;11.684;2024-02-15T01:27:49;3.30;;;1.70;;
37873;SDS011;23709;48.078;11.684;2024-02-15T01:32:55;2.88;;;1.40;;
37873;SDS011;23709;48.078;11.684;2024-02-15T01:35:27;2.97;;;1.50;;
37873;SDS011;23709;48.078;11.684;2024-02-15T01:38:00;2.17;;;1.58;;
37873;SDS011;23709;48.078;11.684;2024-02-15T01:40:32;2.85;;;1.63;;
37873;SDS011;23709;48.078;11.684;2024-02-15T01:43:05;2.92;;;1.23;;
37873;SDS011;23709;48.078;11.684;2024-02-15T01:45:38;3.75;;;1.65;;
37873;SDS011;23709;48.078;11.684;2024-02-15T01:48:10;1.83;;;1.40;;
37873;SDS011;23709;48.078;11.684;2024-02-15T01:50:43;1.53;;;1.17;;
37873;SDS011;23709;48.078;11.684;2024-02-15T01:53:15;1.93;;;1.47;;
37873;SDS011;23709;48.078;11.684;2024-02-15T01:55:49;2.58;;;1.30;;
37873;SDS011;23709;48.078;11.684;2024-02-15T01:58:21;4.22;;;1.25;;
37873;SDS011;23709;48.078;11.684;2024-02-15T02:00:54;2.40;;;1.42;;
37873;SDS011;23709;48.078;11.684;2024-02-15T02:03:28;2.65;;;1.58;;
37873;SDS011;23709;48.078;11.684;2024-02-15T02:06:01;1.80;;;1.20;;
37873;SDS011;23709;48.078;11.684;2024-02-15T02:08:35;2.38;;;1.13;;
37873;SDS011;23709;48.078;11.684;2024-02-15T02:11:08;1.70;;;1.30;;
37873;SDS011;23709;48.078;11.684;2024-02-15T02:13:41;1.80;;;1.38;;
37873;SDS011;23709;48.078;11.684;2024-02-15T02:19:03;2.85;;;1.45;;
37873;SDS011;23709;48.078;11.684;2024-02-15T02:21:40;1.60;;;1.30;;
37873;SDS011;23709;48.078;11.684;2024-02-15T02:24:13;2.58;;;1.40;;
37873;SDS011;23709;48.078;11.684;2024-02-15T02:26:48;1.23;;;0.90;;
37873;SDS011;23709;48.078;11.684;2024-02-15T02:29:21;2.05;;;1.15;;
37873;SDS011;23709;48.078;11.684;2024-02-15T02:31:54;2.92;;;1.70;;
37873;SDS011;23709;48.078;11.684;2024-02-15T02:34:27;2.17;;;1.30;;
37873;SDS011;23709;48.078;11.684;2024-02-15T02:36:59;2.08;;;1.50;;
37873;SDS011;23709;48.078;11.684;2024-02-15T02:39:34;1.73;;;1.23;;
37873;SDS011;23709;48.078;11.684;2024-02-15T02:42:06;1.47;;;1.27;;
37873;SDS011;23709;48.078;11.684;2024-02-15T02:44:39;2.47;;;1.52;;
37873;SDS011;23709;48.078;11.684;2024-02-15T02:47:12;2.33;;;1.45;;
37873;SDS011;23709;48.078;11.684;2024-02-15T02:49:44;2.33;;;1.48;;
37873;SDS011;23709;48.078;11.684;2024-02-15T02:52:16;3.47;;;1.70;;
37873;SDS011;23709;48.078;11.684;2024-02-15T02:54:49;2.20;;;1.45;;
37873;SDS011;23709;48.078;11.684;2024-02-15T02:57:23;2.38;;;1.50;;
37873;SDS011;23709;48.078;11.684;2024-02-15T02:59:55;4.60;;;1.50;;
37873;SDS011;23709;48.078;11.684;2024-02-15T03:02:27;2.78;;;1.42;;
37873;SDS011;23709;48.078;11.684;2024-02-15T03:07:35;4.00;;;1.50;;
37873;SDS011;23709;48.078;11.684;2024-02-15T03:13:19;4.65;;;1.42;;
37873;SDS011;23709;48.078;11.684;2024-02-15T03:15:52;2.40;;;1.50;;
37873;SDS011;23709;48.078;11.684;2024-02-15T03:18:25;2.08;;;1.30;;
37873;SDS011;23709;48.078;11.684;2024-02-15T03:20:57;1.73;;;1.17;;
37873;SDS011;23709;48.078;11.684;2024-02-15T03:23:30;4.15;;;1.65;;
37873;SDS011;23709;48.078;11.684;2024-02-15T03:26:07;2.08;;;1.40;;
37873;SDS011;23709;48.078;11.684;2024-02-15T03:28:40;2.97;;;1.55;;
37873;SDS011;23709;48.078;11.684;2024-02-15T03:31:13;1.60;;;1.23;;
37873;SDS011;23709;48.078;11.684;2024-02-15T03:33:46;3.00;;;1.63;;
37873;SDS011;23709;48.078;11.684;2024-02-15T03:36:22;2.28;;;1.33;;
37873;SDS011;23709;48.078;11.684;2024-02-15T03:38:55;3.38;;;1.35;;
37873;SDS011;23709;48.078;11.684;2024-02-15T03:41:28;3.30;;;1.63;;
37873;SDS011;23709;48.078;11.684;2024-02-15T03:44:05;3.67;;;1.17;;
37873;SDS011;23709;48.078;11.684;2024-02-15T03:46:37;3.03;;;1.25;;
37873;SDS011;23709;48.078;11.684;2024-02-15T03:49:09;1.77;;;1.15;;
37873;SDS011;23709;48.078;11.684;2024-02-15T03:54:16;1.60;;;1.10;;
37873;SDS011;23709;48.078;11.684;2024-02-15T03:56:49;2.38;;;1.40;;
37873;SDS011;23709;48.078;11.684;2024-02-15T03:59:26;1.67;;;1.00;;
37873;SDS011;23709;48.078;11.684;2024-02-15T04:01:59;1.55;;;1.10;;
37873;SDS011;23709;48.078;11.684;2024-02-15T04:04:31;2.55;;;1.38;;
37873;SDS011;23709;48.078;11.684;2024-02-15T04:07:03;1.65;;;1.08;;
37873;SDS011;23709;48.078;11.684;2024-02-15T04:09:36;4.65;;;1.60;;
37873;SDS011;23709;48.078;11.684;2024-02-15T04:12:08;2.03;;;1.13;;
37873;SDS011;23709;48.078;11.684;2024-02-15T04:14:41;3.75;;;1.45;;
37873;SDS011;23709;48.078;11.684;2024-02-15T04:17:16;2.70;;;1.30;;
37873;SDS011;23709;48.078;11.684;2024-02-15T04:19:49;1.85;;;1.30;;
37873;SDS011;23709;48.078;11.684;2024-02-15T04:22:22;4.97;;;1.35;;
37873;SDS011;23709;48.078;11.684;2024-02-15T04:24:54;8.98;;;1.45;;
37873;SDS011;23709;48.078;11.684;2024-02-15T04:27:28;2.03;;;1.33;;
37873;SDS011;23709;48.078;11.684;2024-02-15T04:30:01;5.60;;;1.20;;
37873;SDS011;23709;48.078;11.684;2024-02-15T04:32:35;3.35;;;1.20;;
37873;SDS011;23709;48.078;11.684;2024-02-15T04:35:08;2.50;;;1.80;;
37873;SDS011;23709;48.078;11.684;2024-02-15T04:37:44;3.70;;;1.50;;
37873;SDS011;23709;48.078;11.684;2024-02-15T04:40:18;4.32;;;1.88;;
37873;SDS011;23709;48.078;11.684;2024-02-15T04:42:51;3.28;;;1.58;;
37873;SDS011;23709;48.078;11.684;2024-02-15T04:45:24;3.35;;;1.52;;
37873;SDS011;23709;48.078;11.684;2024-02-15T04:48:04;4.72;;;1.52;;
37873;SDS011;23709;48.078;11.684;2024-02-15T04:50:37;4.72;;;1.67;;
37873;SDS011;23709;48.078;11.684;2024-02-15T04:53:10;4.45;;;1.80;;
37873;SDS011;23709;48.078;11.684;2024-02-15T04:55:42;2.43;;;1.53;;
37873;SDS011;23709;48.078;11.684;2024-02-15T04:58:15;1.65;;;1.38;;
37873;SDS011;23709;48.078;11.684;2024-02-15T05:00:47;5.35;;;1.77;;
37873;SDS011;23709;48.078;11.684;2024-02-15T05:03:24;2.00;;;1.33;;
37873;SDS011;23709;48.078;11.684;2024-02-15T05:05:56;1.65;;;1.30;;
37873;SDS011;23709;48.078;11.684;2024-02-15T05:08:29;2.92;;;1.50;;
37873;SDS011;23709;48.078;11.684;2024-02-15T05:11:03;2.03;;;1.35;;
37873;SDS011;23709;48.078;11.684;2024-02-15T05:13:37;2.70;;;1.40;;
37873;SDS011;23709;48.078;11.684;2024-02-15T05:16:09;2.05;;;1.38;;
37873;SDS011;23709;48.078;11.684;2024-02-15T05:18:42;3.38;;;1.55;;
37873;SDS011;23709;48.078;11.684;2024-02-15T05:21:14;5.60;;;1.30;;
37873;SDS011;23709;48.078;11.684;2024-02-15T05:23:47;2.97;;;1.65;;
37873;SDS011;23709;48.078;11.684;2024-02-15T05:26:20;4.25;;;1.40;;
37873;SDS011;23709;48.078;11.684;2024-02-15T05:28:54;2.40;;;1.52;;
37873;SDS011;23709;48.078;11.684;2024-02-15T05:31:27;5.45;;;2.28;;
37873;SDS011;23709;48.078;11.684;2024-02-15T05:34:00;6.80;;;2.40;;
37873;SDS011;23709;48.078;11.684;2024-02-15T05:36:32;2.85;;;1.75;;
37873;SDS011;23709;48.078;11.684;2024-02-15T05:39:05;5.20;;;1.98;;
37873;SDS011;23709;48.078;11.684;2024-02-15T05:41:38;2.85;;;1.70;;
37873;SDS011;23709;48.078;11.684;2024-02-15T05:44:11;2.70;;;1.77;;
37873;SDS011;23709;48.078;11.684;2024-02-15T05:49:18;3.75;;;1.75;;
37873;SDS011;23709;48.078;11.684;2024-02-15T05:51:51;4.82;;;2.05;;
37873;SDS011;23709;48.078;11.684;2024-02-15T05:54:25;4.57;;;1.50;;
37873;SDS011;23709;48.078;11.684;2024-02-15T05:56:57;2.97;;;1.85;;
37873;SDS011;23709;48.078;11.684;2024-02-15T05:59:36;2.70;;;1.90;;
37873;SDS011;23709;48.078;11.684;2024-02-15T06:02:08;2.75;;;1.85;;
37873;SDS011;23709;48.078;11.684;2024-02-15T06:04:41;3.47;;;2.30;;
37873;SDS011;23709;48.078;11.684;2024-02-15T06:07:14;3.57;;;1.73;;
37873;SDS011;23709;48.078;11.684;2024-02-15T06:09:47;4.20;;;1.77;;
37873;SDS011;23709;48.078;11.684;2024-02-15T06:12:19;4.97;;;2.13;;
37873;SDS011;23709;48.078;11.684;2024-02-15T06:14:52;3.53;;;1.70;;
37873;SDS011;23709;48.078;11.684;2024-02-15T06:17:24;3.75;;;2.08;;
37873;SDS011;23709;48.078;11.684;2024-02-15T06:19:59;2.47;;;1.70;;
37873;SDS011;23709;48.078;11.684;2024-02-15T06:22:31;6.55;;;2.30;;
37873;SDS011;23709;48.078;11.684;2024-02-15T06:25:04;4.55;;;2.42;;
37873;SDS011;23709;48.078;11.684;2024-02-15T06:27:37;3.13;;;2.25;;
37873;SDS011;23709;48.078;11.684;2024-02-15T06:30:12;4.40;;;2.13;;
37873;SDS011;23709;48.078;11.684;2024-02-15T06:33:03;4.10;;;2.15;;
37873;SDS011;23709;48.078;11.684;2024-02-15T06:35:55;7.13;;;2.10;;
37873;SDS011;23709;48.078;11.684;2024-02-15T06:38:46;9.00;;;2.50;;
37873;SDS011;23709;48.078;11.684;2024-02-15T06:41:37;9.88;;;2.63;;
37873;SDS011;23709;48.078;11.684;2024-02-15T06:44:09;8.68;;;2.58;;
37873;SDS011;23709;48.078;11.684;2024-02-15T06:46:42;5.90;;;2.90;;
37873;SDS011;23709;48.078;11.684;2024-02-15T06:49:14;5.93;;;2.58;;
37873;SDS011;23709;48.078;11.684;2024-02-15T06:51:50;7.28;;;3.28;;
37873;SDS011;23709;48.078;11.684;2024-02-15T06:54:22;9.35;;;4.57;;
37873;SDS011;23709;48.078;11.684;2024-02-15T06:56:55;9.80;;;5.00;;
37873;SDS011;23709;48.078;11.684;2024-02-15T06:59:28;8.55;;;4.78;;
37873;SDS011;23709;48.078;11.684;2024-02-15T07:02:00;8.80;;;3.70;;
37873;SDS011;23709;48.078;11.684;2024-02-15T07:04:37;15.15;;;4.88;;
37873;SDS011;23709;48.078;11.684;2024-02-15T07:07:09;12.55;;;5.80;;
37873;SDS011;23709;48.078;11.684;2024-02-15T07:09:42;14.45;;;5.13;;
37873;SDS011;23709;48.078;11.684;2024-02-15T07:12:15;14.10;;;4.78;;
37873;SDS011;23709;48.078;11.684;2024-02-15T07:14:47;10.73;;;5.17;;
37873;SDS011;23709;48.078;11.684;2024-02-15T07:17:20;13.60;;;4.90;;
37873;SDS011;23709;48.078;11.684;2024-02-15T07:19:52;10.90;;;5.15;;
37873;SDS011;23709;48.078;11.684;2024-02-15T07:22:25;11.45;;;4.55;;
37873;SDS011;23709;48.078;11.684;2024-02-15T07:24:57;6.78;;;3.35;;
37873;SDS011;23709;48.078;11.684;2024-02-15T07:27:29;7.68;;;3.97;;
37873;SDS011;23709;48.078;11.684;2024-02-15T07:30:02;10.90;;;3.72;;
37873;SDS011;23709;48.078;11.684;2024-02-15T07:32:36;5.20;;;2.72;;
37873;SDS011;23709;48.078;11.684;2024-02-15T07:35:09;6.35;;;3.78;;
37873;SDS011;23709;48.078;11.684;2024-02-15T07:37:49;9.45;;;3.92;;
37873;SDS011;23709;48.078;11.684;2024-02-15T07:40:24;5.22;;;2.72;;
37873;SDS011;23709;48.078;11.684;2024-02-15T07:43:00;4.00;;;2.70;;
37873;SDS011;23709;48.078;11.684;2024-02-15T07:45:35;6.22;;;3.00;;
37873;SDS011;23709;48.078;11.684;2024-02-15T07:50:41;10.65;;;3.42;;
37873;SDS011;23709;48.078;11.684;2024-02-15T07:53:15;6.97;;;3.30;;
37873;SDS011;23709;48.078;11.684;2024-02-15T07:55:47;10.88;;;3.42;;
37873;SDS011;23709;48.078;11.684;2024-02-15T07:58:22;7.32;;;2.55;;
37873;SDS011;23709;48.078;11.684;2024-02-15T08:00:54;4.82;;;2.70;;
37873;SDS011;23709;48.078;11.684;2024-02-15T08:03:28;6.22;;;2.40;;
37873;SDS011;23709;48.078;11.684;2024-02-15T08:06:02;5.75;;;2.50;;
37873;SDS011;23709;48.078;11.684;2024-02-15T08:08:42;4.53;;;2.15;;
37873;SDS011;23709;48.078;11.684;2024-02-15T08:11:18;7.90;;;2.45;;
37873;SDS011;23709;48.078;11.684;2024-02-15T08:13:51;8.32;;;2.75;;
37873;SDS011;23709;48.078;11.684;2024-02-15T08:16:31;8.68;;;2.38;;
37873;SDS011;23709;48.078;11.684;2024-02-15T08:19:05;7.78;;;2.60;;
37873;SDS011;23709;48.078;11.684;2024-02-15T08:21:39;7.30;;;2.35;;
37873;SDS011;23709;48.078;11.684;2024-02-15T08:24:13;4.65;;;1.88;;
37873;SDS011;23709;48.078;11.684;2024-02-15T08:26:46;6.40;;;2.30;;
37873;SDS011;23709;48.078;11.684;2024-02-15T08:29:19;5.95;;;2.20;;
37873;SDS011;23709;48.078;11.684;2024-02-15T08:31:51;7.63;;;2.60;;
37873;SDS011;23709;48.078;11.684;2024-02-15T08:34:24;7.85;;;2.30;;
37873;SDS011;23709;48.078;11.684;2024-02-15T08:36:56;10.05;;;2.25;;
37873;SDS011;23709;48.078;11.684;2024-02-15T08:42:02;12.57;;;2.25;;
37873;SDS011;23709;48.078;11.684;2024-02-15T08:44:36;13.80;;;3.28;;
37873;SDS011;23709;48.078;11.684;2024-02-15T08:47:08;15.32;;;2.25;;
37873;SDS011;23709;48.078;11.684;2024-02-15T08:49:40;11.20;;;2.13;;
37873;SDS011;23709;48.078;11.684;2024-02-15T08:52:13;16.63;;;2.22;;
37873;SDS011;23709;48.078;11.684;2024-02-15T08:54:46;11.55;;;2.30;;
37873;SDS011;23709;48.078;11.684;2024-02-15T08:57:18;9.73;;;1.70;;
37873;SDS011;23709;48.078;11.684;2024-02-15T08:59:53;10.00;;;1.70;;
37873;SDS011;23709;48.078;11.684;2024-02-15T09:02:26;3.85;;;1.30;;
37873;SDS011;23709;48.078;11.684;2024-02-15T09:04:59;3.35;;;1.42;;
37873;SDS011;23709;48.078;11.684;2024-02-15T09:07:31;4.07;;;1.30;;
37873;SDS011;23709;48.078;11.684;2024-02-15T09:10:03;5.35;;;1.63;;
37873;SDS011;23709;48.078;11.684;2024-02-15T09:12:39;5.30;;;1.23;;
37873;SDS011;23709;48.078;11.684;2024-02-15T09:15:13;3.70;;;1.40;;
37873;SDS011;23709;48.078;11.684;2024-02-15T09:17:49;2.47;;;1.40;;
37873;SDS011;23709;48.078;11.684;2024-02-15T09:20:21;4.68;;;1.50;;
37873;SDS011;23709;48.078;11.684;2024-02-15T09:22:57;2.63;;;1.30;;
37873;SDS011;23709;48.078;11.684;2024-02-15T09:25:29;3.08;;;1.48;;
37873;SDS011;23709;48.078;11.684;2024-02-15T09:28:03;3.55;;;1.30;;
37873;SDS011;23709;48.078;11.684;2024-02-15T09:30:35;5.50;;;1.30;;
37873;SDS011;23709;48.078;11.684;2024-02-15T09:33:08;4.40;;;1.10;;
37873;SDS011;23709;48.078;11.684;2024-02-15T09:35:40;2.70;;;1.40;;
37873;SDS011;23709;48.078;11.684;2024-02-15T09:38:13;2.50;;;1.30;;
37873;SDS011;23709;48.078;11.684;2024-02-15T09:40:49;3.10;;;1.30;;
37873;SDS011;23709;48.078;11.684;2024-02-15T09:43:21;3.30;;;1.13;;
37873;SDS011;23709;48.078;11.684;2024-02-15T09:45:57;3.35;;;1.13;;
37873;SDS011;23709;48.078;11.684;2024-02-15T09:48:31;2.17;;;1.33;;
37873;SDS011;23709;48.078;11.684;2024-02-15T09:51:06;2.00;;;1.00;;
37873;SDS011;23709;48.078;11.684;2024-02-15T09:53:40;1.42;;;0.95;;
37873;SDS011;23709;48.078;11.684;2024-02-15T09:56:13;4.47;;;1.13;;
37873;SDS011;23709;48.078;11.684;2024-02-15T09:58:47;4.00;;;1.38;;
37873;SDS011;23709;48.078;11.684;2024-02-15T10:01:23;4.68;;;1.25;;
37873;SDS011;23709;48.078;11.684;2024-02-15T10:03:59;2.88;;;1.17;;
37873;SDS011;23709;48.078;11.684;2024-02-15T10:06:38;3.95;;;1.00;;
37873;SDS011;23709;48.078;11.684;2024-02-15T10:09:28;1.40;;;0.90;;
37873;SDS011;23709;48.078;11.684;2024-02-15T10:12:02;4.13;;;1.08;;
37873;SDS011;23709;48.078;11.684;2024-02-15T10:14:38;4.13;;;1.08;;
37873;SDS011;23709;48.078;11.684;2024-02-15T10:17:22;2.43;;;1.03;;
37873;SDS011;23709;48.078;11.684;2024-02-15T10:20:04;2.60;;;1.00;;
37873;SDS011;23709;48.078;11.684;2024-02-15T10:22:37;1.25;;;0.80;;
37873;SDS011;23709;48.078;11.684;2024-02-15T10:25:13;3.70;;;1.20;;
37873;SDS011;23709;48.078;11.684;2024-02-15T10:27:46;1.33;;;0.80;;
37873;SDS011;23709;48.078;11.684;2024-02-15T10:30:19;4.68;;;0.80;;
37873;SDS011;23709;48.078;11.684;2024-02-15T10:32:52;4.72;;;1.23;;
37873;SDS011;23709;48.078;11.684;2024-02-15T10:35:28;2.83;;;1.25;;
37873;SDS011;23709;48.078;11.684;2024-02-15T10:38:08;2.55;;;1.08;;
37873;SDS011;23709;48.078;11.684;2024-02-15T10:40:42;3.95;;;1.27;;
37873;SDS011;23709;48.078;11.684;2024-02-15T10:43:15;2.33;;;0.95;;
37873;SDS011;23709;48.078;11.684;2024-02-15T10:45:48;6.10;;;1.20;;
37873;SDS011;23709;48.078;11.684;2024-02-15T10:48:24;3.05;;;1.25;;
37873;SDS011;23709;48.078;11.684;2024-02-15T10:50:59;2.13;;;1.13;;
37873;SDS011;23709;48.078;11.684;2024-02-15T10:53:33;2.40;;;1.10;;
37873;SDS011;23709;48.078;11.684;2024-02-15T10:56:17;1.83;;;1.00;;
37873;SDS011;23709;48.078;11.684;2024-02-15T10:58:58;2.80;;;1.00;;
37873;SDS011;23709;48.078;11.684;2024-02-15T11:01:40;2.53;;;1.00;;
37873;SDS011;23709;48.078;11.684;2024-02-15T11:04:17;3.33;;;1.15;;
37873;SDS011;23709;48.078;11.684;2024-02-15T11:06:58;3.20;;;1.33;;
37873;SDS011;23709;48.078;11.684;2024-02-15T11:09:33;1.90;;;1.00;;
37873;SDS011;23709;48.078;11.684;2024-02-15T11:12:07;1.88;;;1.20;;
37873;SDS011;23709;48.078;11.684;2024-02-15T11:14:40;5.13;;;1.08;;
37873;SDS011;23709;48.078;11.684;2024-02-15T11:20:45;3.55;;;1.27;;
37873;SDS011;23709;48.078;11.684;2024-02-15T11:23:13;1.75;;;0.93;;
37873;SDS011;23709;48.078;11.684;2024-02-15T11:26:42;1.90;;;0.70;;
37873;SDS011;23709;48.078;11.684;2024-02-15T11:32:35;2.22;;;0.90;;
37873;SDS011;23709;48.078;11.684;2024-02-15T11:35:08;1.73;;;1.20;;
37873;SDS011;23709;48.078;11.684;2024-02-15T11:37:59;2.88;;;0.98;;
37873;SDS011;23709;48.078;11.684;2024-02-15T11:46:24;2.22;;;0.90;;
37873;SDS011;23709;48.078;11.684;2024-02-15T11:48:57;2.45;;;0.90;;
37873;SDS011;23709;48.078;11.684;2024-02-15T11:54:09;2.72;;;1.10;;
37873;SDS011;23709;48.078;11.684;2024-02-15T11:59:21;1.45;;;1.08;;
37873;SDS011;23709;48.078;11.684;2024-02-15T12:02:14;2.08;;;1.00;;
37873;SDS011;23709;48.078;11.684;2024-02-15T12:05:07;1.63;;;1.10;;
37873;SDS011;23709;48.078;11.684;2024-02-15T12:07:58;2.92;;;1.65;;
37873;SDS011;23709;48.078;11.684;2024-02-15T12:10:59;1.90;;;0.98;;
37873;SDS011;23709;48.078;11.684;2024-02-15T12:13:51;1.98;;;1.05;;
37873;SDS011;23709;48.078;11.684;2024-02-15T12:16:42;2.63;;;1.10;;
37873;SDS011;23709;48.078;11.684;2024-02-15T12:19:33;1.90;;;0.90;;
37873;SDS011;23709;48.078;11.684;2024-02-15T12:22:06;2.22;;;1.00;;
37873;SDS011;23709;48.078;11.684;2024-02-15T12:24:40;2.72;;;1.27;;
37873;SDS011;23709;48.078;11.684;2024-02-15T12:27:14;4.75;;;0.98;;
37873;SDS011;23709;48.078;11.684;2024-02-15T12:29:53;1.30;;;0.90;;
37873;SDS011;23709;48.078;11.684;2024-02-15T12:32:30;1.25;;;1.02;;
37873;SDS011;23709;48.078;11.684;2024-02-15T12:35:09;4.47;;;1.27;;
37873;SDS011;23709;48.078;11.684;2024-02-15T12:38:02;1.55;;;1.20;;
37873;SDS011;23709;48.078;11.684;2024-02-15T12:40:40;2.85;;;1.55;;
37873;SDS011;23709;48.078;11.684;2024-02-15T12:43:16;3.33;;;1.35;;
37873;SDS011;23709;48.078;11.684;2024-02-15T12:45:49;1.83;;;1.30;;
37873;SDS011;23709;48.078;11.684;2024-02-15T12:48:21;2.63;;;1.60;;
37873;SDS011;23709;48.078;11.684;2024-02-15T12:50:54;1.70;;;1.17;;
37873;SDS011;23709;48.078;11.684;2024-02-15T12:53:27;3.88;;;1.80;;
37873;SDS011;23709;48.078;11.684;2024-02-15T12:55:59;3.47;;;1.27;;
37873;SDS011;23709;48.078;11.684;2024-02-15T12:58:32;3.30;;;1.47;;
37873;SDS011;23709;48.078;11.684;2024-02-15T13:01:04;2.55;;;1.38;;
37873;SDS011;23709;48.078;11.684;2024-02-15T13:03:38;2.30;;;1.27;;
37873;SDS011;23709;48.078;11.684;2024-02-15T13:06:12;4.78;;;1.88;;
37873;SDS011;23709;48.078;11.684;2024-02-15T13:08:45;4.33;;;1.50;;
37873;SDS011;23709;48.078;11.684;2024-02-15T13:11:26;3.53;;;1.17;;
37873;SDS011;23709;48.078;11.684;2024-02-15T13:13:59;1.67;;;1.00;;
37873;SDS011;23709;48.078;11.684;2024-02-15T13:16:31;1.87;;;1.23;;
37873;SDS011;23709;48.078;11.684;2024-02-15T13:19:04;3.33;;;1.17;;
37873;SDS011;23709;48.078;11.684;2024-02-15T13:21:39;2.25;;;1.17;;
37873;SDS011;23709;48.078;11.684;2024-02-15T13:24:11;1.55;;;0.90;;
37873;SDS011;23709;48.078;11.684;2024-02-15T13:26:44;1.73;;;1.40;;
37873;SDS011;23709;48.078;11.684;2024-02-15T13:29:16;1.35;;;1.10;;
37873;SDS011;23709;48.078;11.684;2024-02-15T13:31:49;2.70;;;1.35;;
37873;SDS011;23709;48.078;11.684;2024-02-15T13:36:56;3.60;;;1.10;;
37873;SDS011;23709;48.078;11.684;2024-02-15T13:39:28;3.05;;;0.90;;
37873;SDS011;23709;48.078;11.684;2024-02-15T13:42:04;2.03;;;0.90;;
37873;SDS011;23709;48.078;11.684;2024-02-15T13:44:37;1.00;;;0.90;;
37873;SDS011;23709;48.078;11.684;2024-02-15T13:47:09;1.90;;;0.98;;
37873;SDS011;23709;48.078;11.684;2024-02-15T13:49:43;2.70;;;1.02;;
37873;SDS011;23709;48.078;11.684;2024-02-15T13:52:15;2.63;;;1.07;;
37873;SDS011;23709;48.078;11.684;2024-02-15T13:54:49;1.90;;;1.20;;
37873;SDS011;23709;48.078;11.684;2024-02-15T13:57:22;2.20;;;1.00;;
37873;SDS011;23709;48.078;11.684;2024-02-15T13:59:54;3.97;;;0.90;;
37873;SDS011;23709;48.078;11.684;2024-02-15T14:02:27;1.98;;;1.20;;
37873;SDS011;23709;48.078;11.684;2024-02-15T14:05:00;2.10;;;1.13;;
37873;SDS011;23709;48.078;11.684;2024-02-15T14:07:34;2.78;;;1.00;;
37873;SDS011;23709;48.078;11.684;2024-02-15T14:10:10;4.75;;;1.15;;
37873;SDS011;23709;48.078;11.684;2024-02-15T14:12:44;1.67;;;1.15;;
37873;SDS011;23709;48.078;11.684;2024-02-15T14:15:17;1.45;;;1.05;;
37873;SDS011;23709;48.078;11.684;2024-02-15T14:20:24;1.70;;;1.25;;
37873;SDS011;23709;48.078;11.684;2024-02-15T14:22:56;5.57;;;1.27;;
37873;SDS011;23709;48.078;11.684;2024-02-15T14:25:29;2.40;;;1.40;;
37873;SDS011;23709;48.078;11.684;2024-02-15T14:28:04;1.88;;;1.48;;
37873;SDS011;23709;48.078;11.684;2024-02-15T14:30:39;1.98;;;1.20;;
37873;SDS011;23709;48.078;11.684;2024-02-15T14:33:30;1.80;;;1.33;;
37873;SDS011;23709;48.078;11.684;2024-02-15T14:36:06;2.17;;;1.33;;
37873;SDS011;23709;48.078;11.684;2024-02-15T14:38:39;3.47;;;1.40;;
37873;SDS011;23709;48.078;11.684;2024-02-15T14:41:12;12.82;;;1.63;;
37873;SDS011;23709;48.078;11.684;2024-02-15T14:44:03;5.65;;;1.48;;
37873;SDS011;23709;48.078;11.684;2024-02-15T14:49:09;3.15;;;1.50;;
37873;SDS011;23709;48.078;11.684;2024-02-15T14:51:42;6.40;;;1.70;;
37873;SDS011;23709;48.078;11.684;2024-02-15T14:54:15;4.40;;;1.85;;
37873;SDS011;23709;48.078;11.684;2024-02-15T14:56:54;2.03;;;1.48;;
37873;SDS011;23709;48.078;11.684;2024-02-15T14:59:26;2.05;;;1.45;;
37873;SDS011;23709;48.078;11.684;2024-02-15T15:01:59;3.28;;;1.60;;
37873;SDS011;23709;48.078;11.684;2024-02-15T15:04:43;8.07;;;1.50;;
37873;SDS011;23709;48.078;11.684;2024-02-15T15:07:34;4.78;;;1.38;;
37873;SDS011;23709;48.078;11.684;2024-02-15T15:10:25;3.55;;;1.73;;
37873;SDS011;23709;48.078;11.684;2024-02-15T15:13:16;4.40;;;1.70;;
37873;SDS011;23709;48.078;11.684;2024-02-15T15:15:49;2.85;;;1.52;;
37873;SDS011;23709;48.078;11.684;2024-02-15T15:18:21;2.55;;;1.17;;
37873;SDS011;23709;48.078;11.684;2024-02-15T15:20:55;6.67;;;1.33;;
37873;SDS011;23709;48.078;11.684;2024-02-15T15:23:27;2.35;;;1.27;;
37873;SDS011;23709;48.078;11.684;2024-02-15T15:26:02;5.63;;;1.70;;
37873;SDS011;23709;48.078;11.684;2024-02-15T15:28:35;7.07;;;1.70;;
37873;SDS011;23709;48.078;11.684;2024-02-15T15:31:07;4.43;;;1.67;;
37873;SDS011;23709;48.078;11.684;2024-02-15T15:33:39;3.17;;;1.45;;
37873;SDS011;23709;48.078;11.684;2024-02-15T15:36:12;3.05;;;1.40;;
37873;SDS011;23709;48.078;11.684;2024-02-15T15:38:47;5.00;;;1.50;;
37873;SDS011;23709;48.078;11.684;2024-02-15T15:41:20;6.22;;;1.73;;
37873;SDS011;23709;48.078;11.684;2024-02-15T15:43:54;6.22;;;2.08;;
37873;SDS011;23709;48.078;11.684;2024-02-15T15:46:26;2.33;;;1.73;;
37873;SDS011;23709;48.078;11.684;2024-02-15T15:48:59;5.90;;;1.67;;
37873;SDS011;23709;48.078;11.684;2024-02-15T15:51:33;6.45;;;1.88;;
37873;SDS011;23709;48.078;11.684;2024-02-15T15:54:05;3.37;;;1.80;;
37873;SDS011;23709;48.078;11.684;2024-02-15T15:56:38;4.17;;;1.87;;
37873;SDS011;23709;48.078;11.684;2024-02-15T15:59:10;4.68;;;2.00;;
37873;SDS011;23709;48.078;11.684;2024-02-15T16:01:50;7.70;;;2.00;;
37873;SDS011;23709;48.078;11.684;2024-02-15T16:04:26;4.32;;;1.55;;